Time;durP1;ratioP1;P1;durP2;ratioP2;P2;SDS_P1;SDS_P2;PMS_P1;PMS_P2;Temp;Humidity;BMP_temperature;BMP_pressure;BME280_temperature;BME280_humidity;BME280_pressure;Samples;Min_cycle;Max_cycle;Signal;HPM_P1;HPM_P2
2021/10/24 00:00:13;;;;;;;36.07;14.13;;;;;;;3.08;81.46;100194.72;2131474;84;20945;-78
2021/10/24 00:03:16;;;;;;;29.67;13.93;;;;;;;3.04;81.36;100198.80;2082390;85;21000;-79
2021/10/24 00:06:16;;;;;;;35.73;12.97;;;;;;;2.99;81.25;100195.04;2131259;84;20934;-78
2021/10/24 00:09:17;;;;;;;35.97;13.67;;;;;;;2.97;81.21;100197.02;2101931;85;20957;-79
2021/10/24 00:12:17;;;;;;;30.30;14.63;;;;;;;2.88;81.04;100202.09;2132161;84;20970;-78
2021/10/24 00:15:18;;;;;;;37.37;13.30;;;;;;;2.87;81.51;100198.12;2102672;85;20957;-79
2021/10/24 00:18:18;;;;;;;37.57;14.63;;;;;;;2.84;81.27;100209.14;2132162;84;20922;-78
2021/10/24 00:21:19;;;;;;;45.63;14.97;;;;;;;2.79;81.32;100208.36;2102379;85;21051;-79
2021/10/24 00:24:20;;;;;;;31.43;13.83;;;;;;;2.73;81.37;100206.28;2132353;84;21046;-78
2021/10/24 00:27:20;;;;;;;34.23;13.93;;;;;;;2.71;81.55;100209.55;2102846;85;21024;-79
2021/10/24 00:30:20;;;;;;;41.43;15.17;;;;;;;2.67;81.28;100208.86;2132251;84;20970;-79
2021/10/24 00:33:22;;;;;;;33.80;14.37;;;;;;;2.65;81.11;100203.61;2102408;85;21000;-78
2021/10/24 00:36:23;;;;;;;35.03;15.83;;;;;;;2.61;81.00;100196.86;2132445;84;20918;-79
2021/10/24 00:39:23;;;;;;;36.23;15.40;;;;;;;2.53;81.02;100202.38;2102506;85;20965;-78
2021/10/24 00:42:24;;;;;;;32.47;15.67;;;;;;;2.52;80.74;100207.44;2132540;84;20954;-78
2021/10/24 00:45:24;;;;;;;29.30;14.97;;;;;;;2.45;80.51;100218.14;2102462;85;21348;-79
2021/10/24 00:48:28;;;;;;;32.03;14.70;;;;;;;2.37;80.19;100215.06;2132267;84;20941;-78
2021/10/24 00:51:28;;;;;;;35.90;15.53;;;;;;;2.23;79.88;100210.68;2102486;85;21428;-80
2021/10/24 00:54:29;;;;;;;35.27;15.50;;;;;;;2.10;80.05;100217.98;2132574;84;20981;-79
2021/10/24 00:57:29;;;;;;;32.27;14.03;;;;;;;2.03;80.16;100227.78;2102459;85;21040;-79
2021/10/24 01:00:30;;;;;;;26.53;14.03;;;;;;;1.97;80.40;100228.27;2131359;84;20952;-78
2021/10/24 01:03:30;;;;;;;30.33;13.93;;;;;;;1.94;80.44;100233.20;2101447;85;21420;-78
2021/10/24 01:06:31;;;;;;;27.23;13.00;;;;;;;1.96;80.86;100233.31;2131527;84;20930;-78
2021/10/24 01:09:31;;;;;;;25.00;12.13;;;;;;;1.98;80.65;100239.45;2102363;85;20993;-78
2021/10/24 01:12:32;;;;;;;25.30;12.00;;;;;;;1.95;80.55;100240.14;2129484;84;20941;-78
2021/10/24 01:15:32;;;;;;;26.40;11.97;;;;;;;1.95;80.51;100238.85;2107266;85;21022;-78
2021/10/24 01:18:33;;;;;;;25.30;12.97;;;;;;;1.97;80.69;100241.53;2106980;85;20919;-78
2021/10/24 01:21:33;;;;;;;22.87;11.07;;;;;;;2.09;81.13;100243.64;2107000;85;20911;-78
2021/10/24 01:24:34;;;;;;;26.17;11.17;;;;;;;2.18;80.84;100241.69;2106841;85;20967;-78
2021/10/24 01:27:34;;;;;;;22.87;10.77;;;;;;;2.22;80.75;100243.67;2106859;84;21014;-78
2021/10/24 01:30:35;;;;;;;28.60;11.57;;;;;;;2.27;80.66;100242.70;2060269;87;21345;-78
2021/10/24 01:33:35;;;;;;;36.77;12.60;;;;;;;2.30;80.58;100243.79;2136451;83;20985;-77
2021/10/24 01:36:36;;;;;;;32.67;12.70;;;;;;;2.41;81.21;100236.38;2136998;83;20965;-78
2021/10/24 01:39:37;;;;;;;40.77;14.57;;;;;;;2.52;81.47;100236.69;2136990;83;21009;-78
2021/10/24 01:42:37;;;;;;;33.40;11.93;;;;;;;2.63;81.79;100235.23;2136936;83;20944;-78
2021/10/24 01:45:38;;;;;;;29.63;12.07;;;;;;;2.78;81.80;100237.52;2136724;83;20949;-78
2021/10/24 01:48:38;;;;;;;34.87;11.20;;;;;;;2.90;82.06;100227.09;2136655;83;20993;-79
2021/10/24 01:51:39;;;;;;;29.13;10.77;;;;;;;3.02;82.00;100231.34;2136937;83;21325;-78
2021/10/24 01:54:40;;;;;;;26.43;11.10;;;;;;;3.14;81.99;100229.94;2136899;83;20995;-78
2021/10/24 01:57:40;;;;;;;28.47;10.23;;;;;;;3.22;81.88;100229.12;2059847;84;21001;-78
2021/10/24 02:00:42;;;;;;;31.70;10.40;;;;;;;3.32;81.83;100223.74;2060131;87;21000;-78
2021/10/24 02:03:43;;;;;;;32.07;12.37;;;;;;;3.39;81.64;100236.23;2060064;86;20961;-78
2021/10/24 02:06:43;;;;;;;24.67;11.17;;;;;;;3.47;81.60;100235.94;2059685;87;20934;-78
2021/10/24 02:09:44;;;;;;;25.53;11.90;;;;;;;3.53;81.53;100245.75;2060110;86;20998;-78
2021/10/24 02:12:44;;;;;;;25.07;12.23;;;;;;;3.59;81.46;100247.83;2060013;85;20961;-78
2021/10/24 02:15:45;;;;;;;35.97;13.13;;;;;;;3.66;81.55;100247.00;2088921;85;21004;-78
2021/10/24 02:18:45;;;;;;;32.33;12.93;;;;;;;3.70;81.26;100250.27;2054361;86;20953;-77
2021/10/24 02:21:46;;;;;;;26.57;13.03;;;;;;;3.76;81.34;100248.45;2088882;85;20973;-78
2021/10/24 02:24:46;;;;;;;35.70;12.73;;;;;;;3.81;81.37;100235.02;2055221;86;21310;-79
2021/10/24 02:27:47;;;;;;;30.60;12.60;;;;;;;3.85;81.40;100239.97;2089123;85;21025;-80
2021/10/24 02:30:47;;;;;;;33.53;12.33;;;;;;;3.85;81.39;100238.68;2054526;87;20946;-79
2021/10/24 02:33:48;;;;;;;25.50;11.70;;;;;;;3.83;81.31;100247.63;2088885;85;21041;-79
2021/10/24 02:36:48;;;;;;;31.60;12.57;;;;;;;3.82;81.43;100245.84;2054804;86;20958;-80
2021/10/24 02:39:49;;;;;;;34.97;12.80;;;;;;;3.83;81.42;100252.80;2089092;85;20966;-79
2021/10/24 02:42:49;;;;;;;30.57;13.33;;;;;;;3.88;81.50;100253.07;2054562;86;21332;-78
2021/10/24 02:45:50;;;;;;;33.93;13.67;;;;;;;3.89;81.38;100257.44;2088436;85;21010;-78
2021/10/24 02:48:50;;;;;;;30.07;13.63;;;;;;;3.90;81.40;100255.34;2054463;87;20946;-78
2021/10/24 02:51:51;;;;;;;31.33;13.83;;;;;;;3.93;81.51;100258.11;2088398;85;21008;-78
2021/10/24 02:54:51;;;;;;;31.60;13.37;;;;;;;3.98;81.60;100255.81;2054589;86;21396;-78
2021/10/24 02:57:52;;;;;;;26.53;13.57;;;;;;;3.99;81.31;100264.95;2088874;85;21437;-78
2021/10/24 03:00:53;;;;;;;29.40;14.37;;;;;;;3.99;81.34;100264.05;2054775;87;20934;-79
2021/10/24 03:03:53;;;;;;;26.73;13.43;;;;;;;3.97;81.33;100269.12;2088758;85;20994;-79
2021/10/24 03:06:54;;;;;;;27.20;13.17;;;;;;;3.99;81.31;100270.11;2054734;86;20938;-79
2021/10/24 03:09:54;;;;;;;31.20;13.30;;;;;;;4.00;81.40;100276.17;2088784;85;21357;-78
2021/10/24 03:12:55;;;;;;;26.57;13.10;;;;;;;4.01;81.35;100281.43;2056187;85;20961;-78
2021/10/24 03:15:55;;;;;;;26.63;13.07;;;;;;;4.00;81.49;100284.81;2131495;84;20960;-78
2021/10/24 03:18:56;;;;;;;33.87;13.57;;;;;;;3.96;81.27;100294.47;2101572;85;20992;-79
2021/10/24 03:21:56;;;;;;;35.30;13.43;;;;;;;3.92;81.34;100295.08;2131104;84;20938;-79
2021/10/24 03:24:57;;;;;;;28.73;13.87;;;;;;;3.87;81.29;100294.31;2101605;85;20948;-79
2021/10/24 03:27:57;;;;;;;34.10;13.80;;;;;;;3.81;81.33;100298.30;2131236;84;21358;-79
2021/10/24 03:30:58;;;;;;;28.17;13.63;;;;;;;3.73;81.38;100299.52;2101736;85;20985;-79
2021/10/24 03:33:58;;;;;;;34.93;14.23;;;;;;;3.63;81.36;100301.04;2131472;84;21314;-79
2021/10/24 03:36:59;;;;;;;29.97;13.47;;;;;;;3.54;81.36;100301.76;2101636;85;20948;-79
2021/10/24 03:40:00;;;;;;;32.37;14.13;;;;;;;3.47;81.46;100299.59;2131474;84;21013;-79
2021/10/24 03:43:00;;;;;;;35.87;15.43;;;;;;;3.38;81.57;100302.84;2101613;85;20936;-79
2021/10/24 03:46:01;;;;;;;28.23;13.73;;;;;;;3.30;81.55;100304.94;2131545;84;20914;-78
2021/10/24 03:49:10;;;;;;;32.87;14.63;;;;;;;3.29;81.66;100313.88;2240659;79;22677;-78
2021/10/24 03:52:10;;;;;;;28.73;13.87;;;;;;;3.19;81.93;100312.40;2191383;80;21012;-78
2021/10/24 03:55:12;;;;;;;29.00;14.17;;;;;;;3.17;81.76;100315.28;2190995;81;20968;-79
2021/10/24 03:58:13;;;;;;;35.33;14.07;;;;;;;3.13;81.59;100325.80;2190912;81;21021;-79
2021/10/24 04:01:13;;;;;;;32.63;15.27;;;;;;;3.07;81.87;100328.37;2191027;81;20925;-77
2021/10/24 04:04:13;;;;;;;38.93;14.43;;;;;;;3.04;82.01;100324.31;2190892;81;20917;-77
2021/10/24 04:07:14;;;;;;;32.30;13.60;;;;;;;3.00;82.10;100330.95;2190706;81;20983;-77
2021/10/24 04:10:14;;;;;;;27.67;13.60;;;;;;;2.95;82.12;100332.34;2190746;81;20945;-78
2021/10/24 04:13:15;;;;;;;25.13;11.77;;;;;;;2.90;82.26;100331.16;2190861;81;20952;-79
2021/10/24 04:16:15;;;;;;;27.43;12.57;;;;;;;2.88;82.49;100342.66;2190721;81;20968;-78
2021/10/24 04:19:16;;;;;;;26.27;11.47;;;;;;;2.81;81.99;100343.05;2190690;81;20992;-77
2021/10/24 04:22:16;;;;;;;28.97;12.27;;;;;;;2.73;82.14;100334.31;2190718;81;20940;-78
2021/10/24 04:25:17;;;;;;;24.47;10.70;;;;;;;2.66;82.11;100333.41;2191016;81;20936;-79
2021/10/24 04:28:20;;;;;;;23.80;10.13;;;;;;;2.59;82.23;100338.52;2190964;81;21051;-77
2021/10/24 04:31:20;;;;;;;26.37;11.10;;;;;;;2.54;81.77;100338.20;2190733;81;20953;-78
2021/10/24 04:34:21;;;;;;;33.57;11.30;;;;;;;2.49;81.89;100334.42;2190726;81;20949;-77
2021/10/24 04:37:21;;;;;;;22.63;10.63;;;;;;;2.42;81.69;100341.25;2190765;81;20956;-78
2021/10/24 04:40:22;;;;;;;25.10;10.63;;;;;;;2.36;81.63;100348.56;2191295;81;21002;-79
2021/10/24 04:43:22;;;;;;;26.83;10.53;;;;;;;2.30;81.50;100353.70;2192094;81;20964;-79
2021/10/24 04:46:23;;;;;;;19.20;9.90;;;;;;;2.22;81.49;100354.06;2191644;81;20979;-78
2021/10/24 04:49:23;;;;;;;23.50;10.27;;;;;;;2.20;81.73;100356.04;2191588;81;20980;-79
2021/10/24 04:52:24;;;;;;;32.20;12.03;;;;;;;2.13;81.46;100355.12;2191818;81;20948;-78
2021/10/24 04:55:26;;;;;;;26.93;11.70;;;;;;;2.12;84.15;100362.34;2174102;81;20967;-78
2021/10/24 04:58:27;;;;;;;22.43;11.23;;;;;;;2.22;82.05;100360.90;2191868;81;20951;-77
2021/10/24 05:01:27;;;;;;;30.43;13.37;;;;;;;2.27;82.09;100362.50;2190002;81;20928;-77
2021/10/24 05:04:28;;;;;;;52.30;29.73;;;;;;;2.14;81.17;100362.95;2189338;81;20940;-78
2021/10/24 05:07:28;;;;;;;32.17;13.70;;;;;;;2.03;80.83;100373.30;2189636;81;21031;-78
2021/10/24 05:10:29;;;;;;;25.90;14.07;;;;;;;1.93;80.79;100373.05;2189805;81;20932;-78
2021/10/24 05:13:29;;;;;;;21.67;11.10;;;;;;;1.86;80.94;100375.59;2190498;81;21371;-78
2021/10/24 05:16:30;;;;;;;24.97;11.33;;;;;;;1.84;80.91;100374.59;2190327;81;21004;-77
2021/10/24 05:19:30;;;;;;;26.17;11.47;;;;;;;1.76;80.89;100374.44;2190271;81;21008;-78
2021/10/24 05:22:31;;;;;;;25.23;11.27;;;;;;;1.70;80.81;100375.27;2190174;81;20936;-78
2021/10/24 05:25:32;;;;;;;19.83;9.80;;;;;;;1.67;80.58;100378.02;2190384;81;20956;-78
2021/10/24 05:28:32;;;;;;;20.73;10.13;;;;;;;1.63;80.74;100384.62;2190805;81;20976;-78
2021/10/24 05:31:33;;;;;;;28.93;11.77;;;;;;;1.59;80.63;100391.62;2190218;81;20975;-77
2021/10/24 05:34:33;;;;;;;31.33;11.13;;;;;;;1.57;80.92;100388.94;2190399;81;21372;-79
2021/10/24 05:37:34;;;;;;;20.07;10.87;;;;;;;1.54;80.61;100386.54;2190396;81;21379;-78
2021/10/24 05:40:34;;;;;;;19.77;10.27;;;;;;;1.55;80.78;100391.80;2190098;81;20972;-77
2021/10/24 05:43:35;;;;;;;26.17;11.37;;;;;;;1.52;80.69;100398.41;2190254;81;20952;-78
2021/10/24 05:46:35;;;;;;;30.27;12.40;;;;;;;1.51;80.72;100401.37;2190150;81;21007;-78
2021/10/24 05:49:36;;;;;;;23.33;11.20;;;;;;;1.51;80.82;100394.94;2173126;81;21063;-77
2021/10/24 05:52:36;;;;;;;29.97;11.83;;;;;;;1.54;80.75;100401.59;2173783;81;20980;-79
2021/10/24 05:55:37;;;;;;;28.63;13.83;;;;;;;1.57;80.68;100406.06;2173011;81;21341;-77
2021/10/24 05:58:37;;;;;;;35.30;13.87;;;;;;;1.59;80.73;100408.35;2173133;81;20984;-77
2021/10/24 06:01:38;;;;;;;31.20;12.33;;;;;;;1.67;81.25;100411.48;2172876;82;21008;-77
2021/10/24 06:04:38;;;;;;;29.63;12.40;;;;;;;1.82;81.21;100411.31;2173182;81;20917;-78
2021/10/24 06:07:39;;;;;;;24.43;11.60;;;;;;;1.94;81.34;100412.58;2173765;81;20953;-78
2021/10/24 06:10:40;;;;;;;27.33;11.40;;;;;;;2.01;80.90;100419.55;2173730;81;21004;-78
2021/10/24 06:13:40;;;;;;;24.67;11.73;;;;;;;2.05;80.47;100428.00;2173572;81;20972;-78
2021/10/24 06:16:41;;;;;;;26.93;13.13;;;;;;;2.12;80.35;100432.79;2173590;81;20955;-77
2021/10/24 06:19:44;;;;;;;31.97;13.37;;;;;;;2.22;80.67;100429.17;2173559;81;21656;-77
2021/10/24 06:22:43;;;;;;;39.50;16.80;;;;;;;2.38;80.94;100436.28;2173315;81;21343;-78
2021/10/24 06:25:44;;;;;;;33.63;15.93;;;;;;;2.53;81.17;100438.23;2172695;81;20937;-80
2021/10/24 06:28:45;;;;;;;43.70;18.30;;;;;;;2.73;81.35;100442.20;2173346;81;20972;-80
2021/10/24 06:31:45;;;;;;;37.03;16.17;;;;;;;2.92;81.30;100440.87;2173774;82;20969;-80
2021/10/24 06:34:46;;;;;;;28.60;15.33;;;;;;;3.12;81.40;100441.41;2173679;81;20972;-77
2021/10/24 06:37:46;;;;;;;34.60;15.13;;;;;;;3.28;81.03;100452.75;2172878;81;21344;-77
2021/10/24 06:40:47;;;;;;;38.57;15.27;;;;;;;3.41;80.80;100445.02;2173330;81;21331;-77
2021/10/24 06:43:48;;;;;;;31.60;15.27;;;;;;;3.54;80.72;100450.22;2173442;82;20941;-77
2021/10/24 06:46:48;;;;;;;36.10;13.40;;;;;;;3.67;80.58;100448.92;2173453;81;21000;-77
2021/10/24 06:49:49;;;;;;;30.97;13.93;;;;;;;3.85;80.45;100451.78;2172727;81;21024;-77
2021/10/24 06:52:49;;;;;;;33.50;15.17;;;;;;;4.04;80.46;100442.22;2173406;81;21004;-77
2021/10/24 06:55:50;;;;;;;33.57;15.37;;;;;;;4.23;80.05;100446.45;2172899;81;20965;-77
2021/10/24 06:58:50;;;;;;;37.90;17.37;;;;;;;4.38;79.95;100443.55;2172923;81;20937;-78
2021/10/24 07:01:51;;;;;;;32.63;18.60;;;;;;;4.54;79.53;100454.83;2173288;81;20965;-78
2021/10/24 07:04:51;;;;;;;32.70;17.27;;;;;;;4.68;79.48;100452.69;2173889;81;21308;-79
2021/10/24 07:07:52;;;;;;;39.00;18.90;;;;;;;4.87;79.09;100455.98;2173428;81;21024;-77
2021/10/24 07:10:52;;;;;;;31.73;15.77;;;;;;;4.94;78.57;100453.84;2173090;81;20973;-77
2021/10/24 07:13:53;;;;;;;34.33;14.10;;;;;;;4.91;77.87;100463.12;2173542;81;20953;-78
2021/10/24 07:16:53;;;;;;;31.83;15.30;;;;;;;4.90;77.68;100467.80;2173092;81;20933;-77
2021/10/24 07:19:54;;;;;;;28.00;14.17;;;;;;;4.90;78.14;100468.70;2172765;81;21016;-78
2021/10/24 07:22:54;;;;;;;35.77;17.27;;;;;;;4.96;77.95;100470.36;2172724;81;20984;-77
2021/10/24 07:25:55;;;;;;;38.53;18.20;;;;;;;5.01;78.03;100480.58;2172562;81;21339;-78
2021/10/24 07:28:55;;;;;;;38.13;16.77;;;;;;;5.17;78.08;100476.31;2172619;81;21356;-78
2021/10/24 07:31:56;;;;;;;34.47;15.70;;;;;;;5.27;77.33;100479.97;2172483;82;21022;-77
2021/10/24 07:34:56;;;;;;;34.70;14.90;;;;;;;5.20;77.22;100484.27;2172550;81;20976;-78
2021/10/24 07:37:59;;;;;;;36.67;15.30;;;;;;;5.23;77.52;100484.08;2162719;82;20974;-78
2021/10/24 07:40:59;;;;;;;31.40;13.17;;;;;;;5.32;77.04;100490.19;2172958;82;20980;-78
2021/10/24 07:44:00;;;;;;;29.70;13.63;;;;;;;5.30;77.13;100493.98;2173097;82;20961;-78
2021/10/24 07:47:00;;;;;;;34.67;16.17;;;;;;;5.36;77.14;100493.05;2173745;81;20992;-78
2021/10/24 07:50:01;;;;;;;42.23;15.37;;;;;;;5.47;77.22;100494.97;2173242;81;21020;-77
2021/10/24 07:53:01;;;;;;;30.93;14.67;;;;;;;5.56;77.24;100494.20;2173403;82;20949;-78
2021/10/24 07:56:02;;;;;;;32.23;13.87;;;;;;;5.74;77.13;100500.44;2173281;81;20953;-78
2021/10/24 07:59:03;;;;;;;33.67;15.27;;;;;;;5.89;77.02;100497.86;2173557;82;20988;-78
2021/10/24 08:02:04;;;;;;;29.80;13.97;;;;;;;6.10;76.67;100505.09;2173600;81;20989;-78
2021/10/24 08:05:05;;;;;;;33.20;15.40;;;;;;;6.29;76.71;100502.30;2172346;81;20921;-78
2021/10/24 08:08:05;;;;;;;32.13;15.27;;;;;;;6.43;75.74;100499.57;2172345;81;20965;-77
2021/10/24 08:11:05;;;;;;;35.90;13.90;;;;;;;6.50;75.83;100501.28;2172890;81;21640;-77
2021/10/24 08:14:06;;;;;;;26.37;13.73;;;;;;;6.63;75.64;100501.54;2172631;81;21705;-78
2021/10/24 08:17:07;;;;;;;30.50;16.27;;;;;;;6.77;75.35;100503.17;2172832;81;20925;-78
2021/10/24 08:20:07;;;;;;;33.13;15.60;;;;;;;6.96;74.92;100507.26;2172751;81;21020;-77
2021/10/24 08:23:08;;;;;;;35.13;16.17;;;;;;;7.04;74.57;100506.36;2173257;81;20969;-78
2021/10/24 08:26:08;;;;;;;29.70;14.00;;;;;;;7.07;74.25;100506.92;2173457;81;20948;-78
2021/10/24 08:29:09;;;;;;;32.10;14.73;;;;;;;7.18;73.84;100502.77;2173875;81;20992;-77
2021/10/24 08:32:10;;;;;;;36.53;15.77;;;;;;;7.29;73.79;100507.22;2172823;81;21344;-77
2021/10/24 08:35:11;;;;;;;37.93;16.47;;;;;;;7.31;73.39;100510.78;2173162;81;20957;-78
2021/10/24 08:38:11;;;;;;;31.07;15.07;;;;;;;7.50;73.70;100513.91;2173155;82;21367;-77
2021/10/24 08:41:12;;;;;;;35.53;15.57;;;;;;;7.71;73.37;100512.79;2172957;81;21328;-77
2021/10/24 08:44:12;;;;;;;33.53;13.50;;;;;;;7.87;73.23;100508.86;2172834;81;20948;-77
2021/10/24 08:47:13;;;;;;;25.97;11.53;;;;;;;7.98;72.74;100512.88;2173594;81;20996;-77
2021/10/24 08:50:14;;;;;;;26.60;10.43;;;;;;;8.17;72.90;100509.04;2188394;81;21016;-76
2021/10/24 08:53:15;;;;;;;23.83;8.90;;;;;;;8.39;72.51;100500.98;2189530;81;20959;-77
2021/10/24 08:56:16;;;;;;;24.67;9.27;;;;;;;8.55;71.36;100506.96;2189363;81;20964;-79
2021/10/24 08:59:16;;;;;;;25.63;9.80;;;;;;;8.63;71.07;100504.71;2189911;81;21339;-77
2021/10/24 09:02:17;;;;;;;22.30;9.23;;;;;;;8.76;71.04;100506.20;2189558;81;20984;-77
2021/10/24 09:05:17;;;;;;;26.07;10.07;;;;;;;8.88;71.16;100512.84;2189583;81;20932;-77
2021/10/24 09:08:18;;;;;;;25.33;11.63;;;;;;;9.05;70.81;100512.70;2190494;81;20952;-78
2021/10/24 09:11:18;;;;;;;30.00;11.13;;;;;;;9.12;70.72;100516.06;2189684;81;20975;-77
2021/10/24 09:14:19;;;;;;;23.07;10.07;;;;;;;9.26;70.24;100522.36;2189960;81;20983;-77
2021/10/24 09:17:20;;;;;;;20.40;9.90;;;;;;;9.30;69.82;100513.37;2189944;81;21308;-78
2021/10/24 09:20:20;;;;;;;18.87;8.57;;;;;;;9.38;69.85;100520.69;2189571;81;21072;-76
2021/10/24 09:23:21;;;;;;;25.77;9.43;;;;;;;9.39;68.61;100522.88;2190090;81;20999;-77
2021/10/24 09:26:22;;;;;;;29.10;9.70;;;;;;;9.35;68.24;100525.77;2190019;81;20920;-78
2021/10/24 09:29:22;;;;;;;17.93;8.40;;;;;;;9.30;68.74;100523.38;2189735;81;20955;-77
2021/10/24 09:32:23;;;;;;;21.17;9.90;;;;;;;9.45;69.08;100525.34;2189508;81;21023;-78
2021/10/24 09:35:23;;;;;;;21.30;9.23;;;;;;;9.64;69.21;100524.86;2189822;81;20956;-78
2021/10/24 09:38:24;;;;;;;18.37;8.73;;;;;;;9.81;69.09;100518.21;2189769;81;20976;-77
2021/10/24 09:41:24;;;;;;;23.73;8.83;;;;;;;10.04;68.55;100523.48;2189730;81;21339;-77
2021/10/24 09:44:25;;;;;;;18.73;8.23;;;;;;;10.16;68.71;100520.05;2189907;81;21316;-78
2021/10/24 09:47:25;;;;;;;21.87;8.90;;;;;;;10.35;67.21;100522.59;2189923;81;20995;-77
2021/10/24 09:50:26;;;;;;;16.67;8.17;;;;;;;10.34;66.45;100522.53;2189693;81;21032;-77
2021/10/24 09:53:29;;;;;;;25.85;8.33;;;;;;;10.29;66.74;100525.37;2189460;81;20991;-77
2021/10/24 09:56:30;;;;;;;18.63;8.20;;;;;;;10.30;66.86;100525.86;2189782;81;20928;-77
2021/10/24 09:59:31;;;;;;;18.87;8.18;;;;;;;10.48;66.87;100519.66;2189988;81;20971;-76
2021/10/24 10:02:32;;;;;;;23.85;9.53;;;;;;;10.41;65.74;100524.17;2189633;81;20972;-78
2021/10/24 10:05:32;;;;;;;19.98;7.83;;;;;;;10.15;66.62;100518.27;2189797;81;21316;-77
2021/10/24 10:08:33;;;;;;;14.75;7.08;;;;;;;10.46;67.05;100516.11;2189351;81;21015;-77
2021/10/24 10:11:33;;;;;;;12.28;6.33;;;;;;;10.83;66.50;100516.20;2189676;81;20986;-78
2021/10/24 10:14:34;;;;;;;18.52;6.15;;;;;;;11.18;65.44;100515.76;2189406;81;20952;-77
2021/10/24 10:17:34;;;;;;;14.73;6.55;;;;;;;11.53;64.96;100520.06;2189427;81;20953;-77
2021/10/24 10:20:35;;;;;;;16.52;6.00;;;;;;;11.85;61.40;100528.14;2188855;81;21369;-78
2021/10/24 10:23:36;;;;;;;11.25;5.60;;;;;;;11.60;60.84;100526.39;2189413;81;21315;-77
2021/10/24 10:26:37;;;;;;;14.90;6.58;;;;;;;11.33;63.05;100525.91;2189703;81;20986;-77
2021/10/24 10:29:37;;;;;;;12.58;5.60;;;;;;;11.50;62.49;100526.49;2188746;81;21050;-76
2021/10/24 10:32:38;;;;;;;14.20;6.00;;;;;;;11.42;61.78;100531.45;2189650;81;20952;-77
2021/10/24 10:35:38;;;;;;;9.25;4.97;;;;;;;11.55;62.42;100531.87;2189297;81;20992;-76
2021/10/24 10:38:42;;;;;;;17.48;6.40;;;;;;;11.77;61.96;100525.23;2189419;81;20991;-76
2021/10/24 10:41:43;;;;;;;13.50;5.67;;;;;;;11.78;60.51;100524.02;2189477;81;20901;-78
2021/10/24 10:44:44;;;;;;;9.93;4.75;;;;;;;11.64;61.20;100516.50;2189537;81;21007;-78
2021/10/24 10:47:44;;;;;;;10.05;4.30;;;;;;;11.63;60.57;100526.08;2189568;81;21011;-76
2021/10/24 10:50:46;;;;;;;10.68;4.53;;;;;;;11.66;59.05;100516.14;2173042;81;21039;-78
2021/10/24 10:53:46;;;;;;;9.45;4.47;;;;;;;11.47;58.05;100518.54;2172902;81;20952;-78
2021/10/24 10:56:47;;;;;;;13.25;4.50;;;;;;;11.31;58.52;100521.03;2172960;81;20960;-77
2021/10/24 10:59:48;;;;;;;13.03;5.00;;;;;;;11.14;59.58;100519.09;2172735;82;21391;-78
2021/10/24 11:02:48;;;;;;;13.98;5.20;;;;;;;10.96;60.14;100517.53;2172595;81;21327;-77
2021/10/24 11:05:48;;;;;;;15.05;5.33;;;;;;;10.85;60.92;100512.81;2172857;81;20961;-77
2021/10/24 11:08:49;;;;;;;12.78;4.78;;;;;;;10.86;60.41;100511.08;2172875;81;20953;-77
2021/10/24 11:11:49;;;;;;;13.60;4.50;;;;;;;11.02;60.59;100516.03;2172977;82;20925;-77
2021/10/24 11:14:50;;;;;;;8.00;3.12;;;;;;;11.15;60.46;100510.84;2171935;82;20964;-76
2021/10/24 11:17:50;;;;;;;10.10;3.30;;;;;;;11.48;56.39;100515.98;2171987;81;20972;-77
2021/10/24 11:20:51;;;;;;;8.10;3.27;;;;;;;11.65;57.90;100507.82;2172476;81;21023;-77
2021/10/24 11:23:52;;;;;;;10.80;3.90;;;;;;;11.75;57.13;100508.18;2172366;81;20977;-76
2021/10/24 11:26:52;;;;;;;13.22;5.45;;;;;;;11.94;55.40;100511.44;2172654;81;20960;-76
2021/10/24 11:29:53;;;;;;;14.47;5.42;;;;;;;11.96;57.86;100505.41;2172731;81;20965;-76
2021/10/24 11:32:53;;;;;;;12.30;4.40;;;;;;;12.05;56.21;100500.90;2172748;81;21351;-77
2021/10/24 11:35:54;;;;;;;10.63;3.47;;;;;;;12.05;55.34;100500.48;2172368;82;20992;-76
2021/10/24 11:38:54;;;;;;;11.48;3.80;;;;;;;11.97;56.73;100501.07;2172842;81;20969;-77
2021/10/24 11:41:55;;;;;;;9.95;3.50;;;;;;;11.94;56.87;100503.17;2172934;82;20995;-77
2021/10/24 11:44:55;;;;;;;9.40;4.10;;;;;;;11.90;56.71;100498.67;2172730;81;21000;-77
2021/10/24 11:47:56;;;;;;;13.18;3.37;;;;;;;11.81;56.38;100498.37;2172810;82;20977;-77
2021/10/24 11:50:57;;;;;;;6.60;2.98;;;;;;;11.68;56.92;100498.77;2172705;81;21036;-78
2021/10/24 11:53:57;;;;;;;7.03;2.85;;;;;;;11.60;56.96;100495.00;2172983;82;21016;-77
2021/10/24 11:57:28;;;;;;;9.78;3.05;;;;;;;11.52;56.03;100489.94;2172737;81;21317;-77
2021/10/24 12:00:24;;;;;;;8.48;3.42;;;;;;;11.45;56.34;100491.03;2125804;83;20999;-76
2021/10/24 12:03:24;;;;;;;8.60;3.45;;;;;;;11.59;56.60;100491.92;2172799;81;20957;-76
2021/10/24 12:06:24;;;;;;;6.92;3.27;;;;;;;11.72;56.50;100487.57;2172863;81;20945;-77
2021/10/24 12:09:25;;;;;;;10.45;3.42;;;;;;;11.90;56.64;100484.28;2172798;81;21023;-77
2021/10/24 12:12:28;;;;;;;6.92;3.27;;;;;;;12.02;56.23;100482.06;2172949;82;20980;-77
2021/10/24 12:15:28;;;;;;;9.00;3.77;;;;;;;12.12;55.79;100479.31;2128220;83;20979;-76
2021/10/24 12:18:28;;;;;;;9.85;4.05;;;;;;;12.20;55.95;100474.35;2128395;84;21291;-76
2021/10/24 12:21:29;;;;;;;11.95;5.65;;;;;;;12.26;55.32;100470.61;2128340;84;20964;-77
2021/10/24 12:24:29;;;;;;;15.53;3.90;;;;;;;12.27;54.46;100472.39;2128490;84;20999;-77
2021/10/24 12:27:32;;;;;;;11.73;3.65;;;;;;;12.26;54.86;100475.42;2128441;84;21032;-76
2021/10/24 12:30:32;;;;;;;10.00;3.58;;;;;;;12.34;55.36;100470.42;2172930;81;20960;-77
2021/10/24 12:33:33;;;;;;;14.23;3.75;;;;;;;12.41;54.33;100465.42;2172809;81;20956;-77
2021/10/24 12:36:34;;;;;;;13.53;3.35;;;;;;;12.49;53.97;100461.72;2173095;81;21023;-76
2021/10/24 12:39:34;;;;;;;11.08;3.33;;;;;;;12.43;52.08;100466.78;2173158;81;20972;-77
2021/10/24 12:42:35;;;;;;;6.85;2.90;;;;;;;12.29;51.27;100464.16;2172737;82;20980;-76
2021/10/24 12:45:35;;;;;;;6.80;3.27;;;;;;;12.24;51.88;100465.75;2172469;81;21005;-77
2021/10/24 12:48:35;;;;;;;10.55;4.08;;;;;;;12.17;53.28;100454.63;2172997;81;21430;-76
2021/10/24 12:51:36;;;;;;;12.15;3.17;;;;;;;12.34;53.89;100456.02;2172770;81;20976;-77
2021/10/24 12:54:37;;;;;;;9.93;4.42;;;;;;;12.36;52.58;100455.65;2172501;81;20948;-76
2021/10/24 12:57:37;;;;;;;8.48;3.92;;;;;;;12.35;51.67;100448.64;2172860;82;20968;-76
2021/10/24 13:00:38;;;;;;;14.20;4.72;;;;;;;12.11;52.29;100449.63;2172822;82;21353;-76
2021/10/24 13:03:38;;;;;;;12.30;4.28;;;;;;;11.99;53.60;100449.25;2173059;81;20977;-76
2021/10/24 13:06:39;;;;;;;8.90;3.90;;;;;;;11.95;54.17;100449.99;2172866;81;20957;-76
2021/10/24 13:09:39;;;;;;;10.75;5.22;;;;;;;11.85;53.86;100453.16;2172824;82;21388;-77
2021/10/24 13:12:40;;;;;;;9.75;4.05;;;;;;;11.77;54.62;100455.52;2172919;81;21008;-76
2021/10/24 13:15:44;;;;;;;13.80;4.50;;;;;;;11.57;53.79;100455.67;2172942;81;20982;-77
2021/10/24 13:18:43;;;;;;;15.45;4.72;;;;;;;11.39;54.56;100454.22;2128027;84;20952;-76
2021/10/24 13:24:45;;;;;;;13.15;4.40;;;;;;;11.42;55.89;100450.40;2162363;82;21026;-76
2021/10/24 13:27:46;;;;;;;10.58;4.25;;;;;;;11.49;55.93;100451.08;2172904;81;21344;-76
2021/10/24 13:30:47;;;;;;;12.95;4.92;;;;;;;11.54;55.63;100446.42;2172743;81;21277;-77
2021/10/24 13:33:47;;;;;;;11.45;4.22;;;;;;;11.45;54.83;100443.08;2172923;81;20946;-77
2021/10/24 13:36:48;;;;;;;9.90;3.67;;;;;;;11.36;55.22;100441.05;2172766;82;20965;-76
2021/10/24 13:39:48;;;;;;;7.50;3.00;;;;;;;11.38;54.97;100438.06;2172772;82;20945;-76
2021/10/24 13:42:49;;;;;;;6.25;3.62;;;;;;;11.25;54.02;100442.78;2172666;82;20988;-77
2021/10/24 13:45:50;;;;;;;4.80;3.12;;;;;;;11.16;53.90;100428.98;2172716;82;21344;-76
2021/10/24 13:48:50;;;;;;;8.13;3.40;;;;;;;11.08;54.74;100430.02;2174001;81;21356;-77
2021/10/24 13:51:51;;;;;;;7.50;3.35;;;;;;;11.12;55.00;100429.30;2189389;81;20916;-76
2021/10/24 13:54:51;;;;;;;8.35;3.33;;;;;;;11.12;54.42;100429.30;2189369;81;20999;-76